Terminal Aerodrome Forecast
Issued by NWS Wilmington, OH

Current Version | Previous Version | Graphics & Text | Print | Product List | Glossary On
Versions: 1 2 3 4 5 6 7 8 9 10 11 12 13 14 15 16
000
FTUS41 KILN 171400 AAB
TAFDAY
TAF AMD
KDAY 171418Z 1714/1812 28012KT P6SM OVC014
     FM180000 31008KT P6SM OVC014=

USA.gov is the U.S. government's official web portal to all federal, state and local government web resources and services.